Jj Sky — VRJA6 — position and weather

sailwx.info

Track history (hours):
 
Tides and Currents Weather Stations Pressure Air Temp Water Temp Dewpoint Dewpoint Depression Visibility Wind Speed Wind Dir Waves Ship Positions

Jj Sky

Last reported at 2016-Jun-27 10:09 UTC. Time now 2016-Jun-27 11:27 UTC.
Position N 34°39' E 135°24'.

Length 148 m; draft 7.6 m.

Type: Ship (hazmat cat D). MMSI: 477397500.

Date/timePositionNaut miles runAvg speedWind from/ knotsBaromVisibWave heightAir tempDewpointWater temp
2016-Jun-27 10:09N 34°39' E 135°24'0 0.0
2016-Jun-27 09:27N 34°39' E 135°24'0 0.0
2016-Jun-27 08:15N 34°39' E 135°24'0 0.0
2016-Jun-27 07:32N 34°39' E 135°24'0 0.0
2016-Jun-27 05:25N 34°39' E 135°24'0 0.0
2016-Jun-27 04:31N 34°39' E 135°24'0 0.0
2016-Jun-27 03:18N 34°39' E 135°24'0 0.0
2016-Jun-27 02:24N 34°39' E 135°24'0 0.0
2016-Jun-27 01:30N 34°39' E 135°24'0 0.0
2016-Jun-27 00:29N 34°39' E 135°24'0 0.0
2016-Jun-26 23:29N 34°39' E 135°24'0 0.0
2016-Jun-26 22:28N 34°39' E 135°24'3 3.3
2016-Jun-26 21:33N 34°37' E 135°21'1111.1
2016-Jun-26 20:33N 34°29' E 135°12'1111.2
2016-Jun-26 19:33N 34°21' E 135°03'1212.6
2016-Jun-26 18:33N 34°09' E 134°58'  
2016-Jun-24 07:16N 31°20' E 121°40'  
2016-Jun-21 06:17N 33°60' E 134°54'2816.1
2016-Jun-21 04:33N 34°27' E 135°03'1514.9
2016-Jun-21 03:33N 34°37' E 135°16'3 2.3
2016-Jun-21 02:29N 34°39' E 135°15'0 0.0
2016-Jun-21 01:22N 34°39' E 135°15'0 0.1
2016-Jun-21 00:28N 34°39' E 135°14'0 0.1
2016-Jun-20 23:28N 34°39' E 135°15'0 0.0
2016-Jun-20 22:33N 34°39' E 135°15'7 7.1
2016-Jun-20 21:33N 34°38' E 135°23'1 1.2
2016-Jun-20 20:29N 34°39' E 135°24'0 0.0
2016-Jun-20 19:33N 34°39' E 135°24'0 0.0
2016-Jun-20 18:32N 34°39' E 135°24'0 0.0
2016-Jun-20 17:33N 34°39' E 135°24'0 0.0
2016-Jun-20 16:30N 34°39' E 135°24'0 0.0
2016-Jun-20 15:17N 34°39' E 135°24'0 0.0
2016-Jun-20 14:29N 34°39' E 135°24'0 0.0
2016-Jun-20 13:28N 34°39' E 135°24'0 0.1
2016-Jun-20 12:28N 34°39' E 135°24'0 0.0
2016-Jun-20 11:32N 34°39' E 135°24'0 0.1
2016-Jun-20 10:26N 34°39' E 135°24'0 0.0
2016-Jun-20 09:32N 34°39' E 135°24'0 0.1
2016-Jun-20 08:20N 34°39' E 135°24'0 0.1
2016-Jun-20 07:32N 34°39' E 135°24'0 0.0
2016-Jun-20 06:31N 34°39' E 135°24'0 0.0
2016-Jun-20 05:18N 34°39' E 135°24'0 0.0
2016-Jun-20 04:18N 34°39' E 135°24'0 0.0
2016-Jun-20 03:24N 34°39' E 135°24'0 0.0
2016-Jun-20 02:14N 34°39' E 135°24'0 0.0
2016-Jun-20 01:30N 34°39' E 135°24'0 0.0
2016-Jun-20 00:24N 34°39' E 135°24'0 0.0
2016-Jun-19 23:17N 34°39' E 135°24'0 0.0
2016-Jun-19 22:29N 34°39' E 135°24'4 4.3
2016-Jun-19 21:32N 34°36' E 135°20'9 9.5
2016-Jun-19 20:33N 34°29' E 135°13'1010.2
2016-Jun-19 19:33N 34°22' E 135°04'10 9.7
2016-Jun-19 18:33N 34°14' E 134°59'8 8.2
2016-Jun-19 17:32N 34°05' E 134°57'  
2016-Jun-17 12:04N 31°20' E 121°40'  
Track history (hours):
 
Tides and Currents Weather Stations Pressure Air Temp Water Temp Dewpoint Dewpoint Depression Visibility Wind Speed Wind Dir Waves Ship Positions

Jj Sky

Last reported at 2016-Jun-27 10:09 UTC. Time now 2016-Jun-27 11:27 UTC.
Position N 34°39' E 135°24'.

Length 148 m; draft 7.6 m.

Type: Ship (hazmat cat D). MMSI: 477397500.

Date/timePositionNaut miles runAvg speedWind from/ knotsBaromVisibWave heightAir tempDewpointWater temp
2016-Jun-27 10:09N 34°39' E 135°24'0 0.0
2016-Jun-27 09:27N 34°39' E 135°24'0 0.0
2016-Jun-27 08:15N 34°39' E 135°24'0 0.0
2016-Jun-27 07:32N 34°39' E 135°24'0 0.0
2016-Jun-27 05:25N 34°39' E 135°24'0 0.0
2016-Jun-27 04:31N 34°39' E 135°24'0 0.0
2016-Jun-27 03:18N 34°39' E 135°24'0 0.0
2016-Jun-27 02:24N 34°39' E 135°24'0 0.0
2016-Jun-27 01:30N 34°39' E 135°24'0 0.0
2016-Jun-27 00:29N 34°39' E 135°24'0 0.0
2016-Jun-26 23:29N 34°39' E 135°24'0 0.0
2016-Jun-26 22:28N 34°39' E 135°24'3 3.3
2016-Jun-26 21:33N 34°37' E 135°21'1111.1
2016-Jun-26 20:33N 34°29' E 135°12'1111.2
2016-Jun-26 19:33N 34°21' E 135°03'1212.6
2016-Jun-26 18:33N 34°09' E 134°58'  
2016-Jun-24 07:16N 31°20' E 121°40'  
2016-Jun-21 06:17N 33°60' E 134°54'2816.1
2016-Jun-21 04:33N 34°27' E 135°03'1514.9
2016-Jun-21 03:33N 34°37' E 135°16'3 2.3
2016-Jun-21 02:29N 34°39' E 135°15'0 0.0
2016-Jun-21 01:22N 34°39' E 135°15'0 0.1
2016-Jun-21 00:28N 34°39' E 135°14'0 0.1
2016-Jun-20 23:28N 34°39' E 135°15'0 0.0
2016-Jun-20 22:33N 34°39' E 135°15'7 7.1
2016-Jun-20 21:33N 34°38' E 135°23'1 1.2
2016-Jun-20 20:29N 34°39' E 135°24'0 0.0
2016-Jun-20 19:33N 34°39' E 135°24'0 0.0
2016-Jun-20 18:32N 34°39' E 135°24'0 0.0
2016-Jun-20 17:33N 34°39' E 135°24'0 0.0
2016-Jun-20 16:30N 34°39' E 135°24'0 0.0
2016-Jun-20 15:17N 34°39' E 135°24'0 0.0
2016-Jun-20 14:29N 34°39' E 135°24'0 0.0
2016-Jun-20 13:28N 34°39' E 135°24'0 0.1
2016-Jun-20 12:28N 34°39' E 135°24'0 0.0
2016-Jun-20 11:32N 34°39' E 135°24'0 0.1
2016-Jun-20 10:26N 34°39' E 135°24'0 0.0
2016-Jun-20 09:32N 34°39' E 135°24'0 0.1
2016-Jun-20 08:20N 34°39' E 135°24'0 0.1
2016-Jun-20 07:32N 34°39' E 135°24'0 0.0
2016-Jun-20 06:31N 34°39' E 135°24'0 0.0
2016-Jun-20 05:18N 34°39' E 135°24'0 0.0
2016-Jun-20 04:18N 34°39' E 135°24'0 0.0
2016-Jun-20 03:24N 34°39' E 135°24'0 0.0
2016-Jun-20 02:14N 34°39' E 135°24'0 0.0
2016-Jun-20 01:30N 34°39' E 135°24'0 0.0
2016-Jun-20 00:24N 34°39' E 135°24'0 0.0
2016-Jun-19 23:17N 34°39' E 135°24'0 0.0
2016-Jun-19 22:29N 34°39' E 135°24'4 4.3
2016-Jun-19 21:32N 34°36' E 135°20'9 9.5
2016-Jun-19 20:33N 34°29' E 135°13'1010.2
2016-Jun-19 19:33N 34°22' E 135°04'10 9.7
2016-Jun-19 18:33N 34°14' E 134°59'8 8.2
2016-Jun-19 17:32N 34°05' E 134°57'  
2016-Jun-17 12:04N 31°20' E 121°40'  

Dump ship's entire track history